Rencona, New Mexico
Current Conditions -  °F | °C
As of 10:53 PM on Wednesday 22 Oct 2014 (Local Time) from KCQC Reporting Station
Clear Clear  
Wind Chill: 44°   Ceiling: Unl
Heat Index: 47°   Visibility: 10mi
Dew Point: 34°   Wind: 7mph
Humidity: 61%   Direction: 270°W
Pressure: 30.25"   Gusts: NA
Location:  35.3026°N, 105.662°W
Report Text: KCQC 230453Z AUTO 27006KT 10SM CLR 08/01 A3025 RMK AO2 SLP182 T00830011
Loading
Personal Weather Stations






























Interactive Weather Map
Tropical Storm Tracking
New forecast layout! Learn more

10-Day Weather Forecast

Advertisements
Track Severe Weather on mobile